Time;durP1;ratioP1;P1;durP2;ratioP2;P2;SDS_P1;SDS_P2;PMS_P1;PMS_P2;Temp;Humidity;BMP_temperature;BMP_pressure;BME280_temperature;BME280_humidity;BME280_pressure;Samples;Min_cycle;Max_cycle;Signal;HPM_P1;HPM_P2
2023/07/16 04:05:45;;;;;;;2.60;2.07;;;20.40;97.30;;;;;;4983870;28;21086;-76
2023/07/16 04:08:11;;;;;;;2.87;1.93;;;20.40;97.30;;;;;;4985761;28;20492;-75
2023/07/16 04:10:37;;;;;;;2.47;2.17;;;20.40;97.30;;;;;;4978630;28;20825;-76
2023/07/16 04:13:03;;;;;;;2.00;1.90;;;20.30;97.30;;;;;;4985759;28;20960;-75
2023/07/16 04:15:28;;;;;;;10.87;2.10;;;20.30;97.30;;;;;;4985828;28;20202;-74
2023/07/16 04:17:57;;;;;;;2.53;2.30;;;20.30;97.30;;;;;;4965529;28;20190;-74
2023/07/16 04:20:26;;;;;;;3.33;2.90;;;20.30;97.30;;;;;;4968786;28;20708;-75
2023/07/16 04:22:52;;;;;;;2.87;2.23;;;20.40;97.30;;;;;;4984025;28;20437;-76
2023/07/16 04:25:18;;;;;;;1.70;1.40;;;20.40;97.30;;;;;;4981580;28;20463;-74
2023/07/16 04:27:47;;;;;;;1.80;1.77;;;20.40;97.30;;;;;;4963621;28;20563;-74
2023/07/16 04:30:13;;;;;;;2.40;2.20;;;20.40;97.30;;;;;;4999956;23;20420;-68
2023/07/16 04:32:38;;;;;;;3.30;1.93;;;20.40;97.30;;;;;;4968375;28;20442;-69
2023/07/16 04:35:04;;;;;;;2.77;1.90;;;20.40;97.30;;;;;;4968286;28;20198;-69
2023/07/16 04:37:30;;;;;;;9.00;1.67;;;20.40;97.30;;;;;;4968368;28;20191;-69
2023/07/16 04:39:55;;;;;;;3.27;2.70;;;20.40;97.30;;;;;;4969323;28;20190;-69
2023/07/16 04:42:21;;;;;;;1.70;1.60;;;20.50;97.30;;;;;;4966492;28;20588;-69
2023/07/16 04:44:47;;;;;;;1.70;1.67;;;20.50;97.30;;;;;;4966475;28;20186;-68
2023/07/16 04:47:12;;;;;;;1.40;1.30;;;20.50;97.30;;;;;;4968004;28;20674;-69
2023/07/16 04:49:38;;;;;;;2.87;2.47;;;20.50;97.30;;;;;;4966298;28;20232;-69
2023/07/16 04:52:04;;;;;;;2.83;1.90;;;20.50;97.30;;;;;;4966439;28;20262;-70
2023/07/16 04:54:34;;;;;;;3.47;1.83;;;20.50;97.30;;;;;;4965391;28;20198;-69
2023/07/16 04:56:59;;;;;;;3.00;2.13;;;20.50;97.30;;;;;;4967728;28;20433;-69
2023/07/16 04:59:25;;;;;;;1.33;1.23;;;20.60;97.30;;;;;;4969102;28;20437;-68
2023/07/16 05:01:50;;;;;;;2.30;1.73;;;20.60;97.30;;;;;;4968150;28;20297;-69
2023/07/16 05:04:16;;;;;;;2.30;2.00;;;20.60;97.30;;;;;;4969242;28;20194;-69
2023/07/16 05:06:41;;;;;;;3.23;2.23;;;20.60;97.30;;;;;;4967218;28;20686;-69
2023/07/16 05:09:07;;;;;;;1.50;1.40;;;20.60;97.30;;;;;;4965405;28;20664;-69
2023/07/16 05:11:33;;;;;;;2.10;1.53;;;20.60;97.30;;;;;;4967274;28;20698;-69
2023/07/16 05:13:59;;;;;;;1.43;1.37;;;20.60;97.30;;;;;;4968807;28;20413;-69
2023/07/16 05:16:25;;;;;;;2.07;1.80;;;20.60;97.30;;;;;;4968732;28;20182;-70
2023/07/16 05:18:50;;;;;;;2.30;1.50;;;20.70;97.30;;;;;;4966537;28;20197;-69
2023/07/16 05:21:16;;;;;;;3.47;1.97;;;20.70;97.30;;;;;;4969555;28;20210;-69
2023/07/16 05:23:41;;;;;;;3.03;2.50;;;20.70;97.30;;;;;;4969998;28;20454;-69
2023/07/16 05:26:07;;;;;;;1.50;1.27;;;20.70;97.30;;;;;;4969688;28;20210;-69
2023/07/16 05:28:32;;;;;;;1.50;1.40;;;20.80;97.30;;;;;;4969830;28;20213;-69
2023/07/16 05:31:00;;;;;;;1.93;1.57;;;20.80;97.30;;;;;;4969477;28;20686;-70
2023/07/16 05:33:25;;;;;;;4.80;2.23;;;20.80;97.30;;;;;;4970753;28;20190;-71
2023/07/16 05:35:51;;;;;;;1.73;1.63;;;20.80;97.30;;;;;;4972298;28;20436;-70
2023/07/16 05:38:16;;;;;;;1.33;1.23;;;20.80;97.30;;;;;;4972519;28;20197;-70
2023/07/16 05:40:42;;;;;;;2.47;2.30;;;20.90;97.30;;;;;;4966265;28;20359;-70
2023/07/16 05:43:07;;;;;;;3.20;2.30;;;20.90;97.30;;;;;;4970821;28;20190;-70
2023/07/16 05:45:34;;;;;;;1.87;1.77;;;20.90;97.30;;;;;;4971953;28;20705;-70
2023/07/16 05:47:59;;;;;;;1.33;1.23;;;21.00;97.30;;;;;;4971858;28;20197;-69
2023/07/16 05:50:25;;;;;;;1.50;1.40;;;20.90;97.30;;;;;;4961840;28;20454;-69
2023/07/16 05:52:50;;;;;;;1.70;1.60;;;20.90;97.30;;;;;;4967689;28;20201;-74
2023/07/16 05:55:16;;;;;;;1.60;1.20;;;20.90;97.30;;;;;;4972160;28;20227;-74
2023/07/16 05:57:42;;;;;;;1.40;1.30;;;20.90;97.30;;;;;;4964090;28;20210;-69
2023/07/16 06:00:08;;;;;;;1.67;1.30;;;20.90;97.30;;;;;;4970952;28;20512;-74
2023/07/16 06:02:34;;;;;;;1.20;1.10;;;20.90;97.30;;;;;;4966463;28;20182;-73
2023/07/16 06:05:00;;;;;;;1.73;1.60;;;20.90;97.30;;;;;;4971885;28;20436;-70
2023/07/16 06:07:25;;;;;;;1.90;1.80;;;20.90;97.30;;;;;;4973369;28;20469;-71
2023/07/16 06:09:51;;;;;;;2.23;1.60;;;21.00;97.30;;;;;;4971914;28;20214;-71
2023/07/16 06:12:16;;;;;;;1.10;1.00;;;21.10;97.30;;;;;;4971572;28;20266;-72
2023/07/16 06:14:42;;;;;;;1.30;1.30;;;21.10;97.30;;;;;;4973114;28;20199;-71
2023/07/16 06:17:07;;;;;;;1.37;1.27;;;21.10;97.30;;;;;;4973003;28;20194;-70
2023/07/16 06:19:33;;;;;;;1.10;1.00;;;21.20;97.30;;;;;;4972988;28;20186;-72
2023/07/16 06:21:58;;;;;;;2.13;1.90;;;21.20;97.30;;;;;;4971042;28;20700;-71
2023/07/16 06:24:24;;;;;;;1.87;1.77;;;21.30;97.30;;;;;;4972640;28;20570;-70
2023/07/16 06:26:50;;;;;;;1.30;1.20;;;21.30;97.30;;;;;;4972482;28;20206;-73
2023/07/16 06:29:15;;;;;;;4.40;1.93;;;21.40;97.30;;;;;;4972759;28;20279;-72
2023/07/16 06:31:44;;;;;;;27.13;1.90;;;21.50;97.30;;;;;;4964899;28;20238;-68
2023/07/16 06:34:09;;;;;;;1.70;1.60;;;21.50;97.30;;;;;;4970480;28;20635;-70
2023/07/16 06:36:35;;;;;;;1.73;1.63;;;21.40;97.30;;;;;;4983374;28;20437;-70
2023/07/16 06:39:01;;;;;;;1.57;1.50;;;21.50;97.30;;;;;;4966348;28;20193;-66
2023/07/16 06:41:26;;;;;;;10.60;1.90;;;21.50;97.30;;;;;;4972399;28;20218;-66
2023/07/16 06:43:52;;;;;;;6.73;1.97;;;21.50;97.30;;;;;;4970567;28;20570;-68
2023/07/16 06:46:17;;;;;;;1.83;1.73;;;21.60;97.30;;;;;;4970501;28;20554;-68
2023/07/16 06:48:43;;;;;;;3.70;1.40;;;21.60;97.30;;;;;;4972285;28;20174;-75
2023/07/16 06:51:08;;;;;;;1.53;1.43;;;21.60;97.30;;;;;;4970335;28;20203;-72
2023/07/16 06:53:34;;;;;;;11.53;1.57;;;21.60;97.30;;;;;;4970873;28;20218;-77
2023/07/16 06:55:59;;;;;;;1.30;1.20;;;21.60;97.30;;;;;;4972640;28;20201;-74
2023/07/16 06:58:33;;;;;;;1.30;1.20;;;21.60;97.30;;;;;;4970934;28;20194;-70
2023/07/16 07:00:58;;;;;;;1.30;1.20;;;21.70;97.30;;;;;;4970907;28;20229;-75
2023/07/16 07:03:24;;;;;;;1.33;1.17;;;21.70;97.30;;;;;;4971226;28;20934;-68
2023/07/16 07:05:49;;;;;;;2.50;1.70;;;21.80;97.30;;;;;;4972894;28;20229;-81
2023/07/16 07:08:15;;;;;;;1.20;1.10;;;21.90;97.30;;;;;;4971267;28;20188;-85
2023/07/16 07:10:40;;;;;;;1.20;1.10;;;22.00;97.30;;;;;;4970960;28;20294;-74
2023/07/16 07:13:06;;;;;;;1.20;1.10;;;22.10;97.30;;;;;;4970532;28;20241;-75
2023/07/16 07:15:32;;;;;;;2.47;1.60;;;22.10;97.30;;;;;;4970898;28;20556;-70
2023/07/16 07:17:57;;;;;;;1.60;1.50;;;22.10;97.30;;;;;;4970910;28;20190;-71
2023/07/16 07:20:23;;;;;;;2.50;2.40;;;22.10;97.30;;;;;;4970350;28;20724;-74
2023/07/16 07:22:48;;;;;;;2.60;1.93;;;22.10;97.30;;;;;;4970347;28;20551;-71
2023/07/16 07:25:14;;;;;;;1.10;1.00;;;22.20;97.30;;;;;;4971294;28;20249;-76
2023/07/16 07:27:40;;;;;;;3.07;1.57;;;22.20;97.30;;;;;;4970028;28;20187;-70
2023/07/16 07:30:06;;;;;;;1.57;1.47;;;22.30;97.30;;;;;;4969972;28;20198;-74
2023/07/16 07:32:31;;;;;;;1.50;1.40;;;22.40;97.30;;;;;;4971554;28;20222;-72
2023/07/16 07:34:57;;;;;;;1.47;1.43;;;22.40;97.10;;;;;;4971873;28;20418;-68
2023/07/16 07:37:22;;;;;;;6.27;1.37;;;22.50;96.10;;;;;;4972006;28;20643;-73
2023/07/16 07:39:54;;;;;;;3.13;1.87;;;22.50;96.10;;;;;;4970178;28;20552;-74
2023/07/16 07:42:20;;;;;;;5.03;2.07;;;22.50;96.10;;;;;;4970432;28;20206;-69
2023/07/16 07:44:45;;;;;;;1.40;1.30;;;22.60;95.60;;;;;;4971721;28;20425;-65
2023/07/16 07:47:11;;;;;;;1.40;1.30;;;22.60;94.40;;;;;;4970299;28;20206;-76
2023/07/16 07:49:36;;;;;;;1.80;1.73;;;22.60;93.60;;;;;;4971735;28;20701;-71
2023/07/16 07:52:02;;;;;;;2.17;1.50;;;22.60;94.50;;;;;;4968464;28;20697;-71
2023/07/16 07:54:28;;;;;;;1.43;1.33;;;22.60;93.30;;;;;;4968349;28;20197;-71
2023/07/16 07:56:53;;;;;;;1.93;1.83;;;22.60;93.30;;;;;;4967986;28;20271;-65
2023/07/16 07:59:19;;;;;;;1.77;1.50;;;22.70;94.40;;;;;;4969861;28;20190;-72
2023/07/16 08:01:44;;;;;;;1.80;1.30;;;22.70;93.30;;;;;;4971518;28;20195;-71
2023/07/16 08:04:10;;;;;;;1.57;1.23;;;22.70;93.70;;;;;;4970355;28;20233;-72
2023/07/16 08:06:35;;;;;;;20.97;3.23;;;22.70;92.50;;;;;;4970557;28;20210;-78
2023/07/16 08:09:01;;;;;;;2.50;1.77;;;22.80;92.30;;;;;;4971512;28;20434;-71
2023/07/16 08:11:26;;;;;;;1.63;1.60;;;22.80;91.80;;;;;;4970396;28;20210;-72
2023/07/16 08:13:52;;;;;;;2.70;1.80;;;22.80;92.20;;;;;;4971097;28;20194;-71
2023/07/16 08:16:18;;;;;;;1.47;1.47;;;22.90;91.90;;;;;;4969606;28;20182;-72
2023/07/16 08:18:43;;;;;;;1.50;1.43;;;23.00;91.80;;;;;;4970831;28;20194;-71
2023/07/16 08:21:09;;;;;;;2.80;1.93;;;23.20;91.60;;;;;;4969917;28;20218;-73
2023/07/16 08:23:34;;;;;;;1.43;1.33;;;23.30;91.60;;;;;;4970817;28;20186;-69
2023/07/16 08:26:00;;;;;;;1.87;1.83;;;23.40;91.10;;;;;;4969541;28;20581;-72
2023/07/16 08:28:25;;;;;;;1.87;1.77;;;23.50;90.20;;;;;;4969017;28;20655;-73
2023/07/16 08:30:51;;;;;;;3.97;1.70;;;23.50;88.60;;;;;;4970360;28;20245;-73
2023/07/16 08:33:16;;;;;;;5.17;2.30;;;23.50;88.20;;;;;;4969183;28;20678;-72
2023/07/16 08:35:42;;;;;;;1.57;1.47;;;23.60;89.10;;;;;;4970685;28;20653;-73
2023/07/16 08:38:09;;;;;;;1.30;1.20;;;23.70;89.00;;;;;;4970415;28;20202;-76
2023/07/16 08:40:37;;;;;;;2.37;1.73;;;23.80;88.20;;;;;;4969418;28;20228;-74
2023/07/16 08:43:05;;;;;;;1.20;1.10;;;23.80;87.50;;;;;;4969083;28;20426;-67
2023/07/16 08:45:31;;;;;;;3.90;1.60;;;23.90;85.10;;;;;;4968447;28;20462;-72
2023/07/16 08:47:57;;;;;;;1.40;1.00;;;23.90;84.80;;;;;;4969081;28;20436;-71
2023/07/16 08:50:25;;;;;;;1.50;1.40;;;23.90;83.60;;;;;;4970043;28;20437;-72
2023/07/16 08:52:51;;;;;;;1.47;1.47;;;23.90;83.40;;;;;;4968712;28;20190;-69
2023/07/16 08:55:17;;;;;;;2.07;1.10;;;24.00;83.50;;;;;;4969839;28;20430;-70
2023/07/16 08:57:43;;;;;;;11.07;1.77;;;24.10;83.60;;;;;;4968553;28;20194;-67
2023/07/16 09:00:10;;;;;;;1.17;1.17;;;24.10;83.40;;;;;;4968623;28;20472;-65
2023/07/16 09:02:35;;;;;;;1.40;1.33;;;24.20;84.10;;;;;;4968462;28;20760;-72
2023/07/16 09:05:01;;;;;;;1.40;1.30;;;24.30;84.20;;;;;;4968508;28;20837;-70
2023/07/16 09:07:27;;;;;;;1.30;1.20;;;24.40;85.00;;;;;;4969884;28;20230;-69
2023/07/16 09:10:08;;;;;;;1.13;1.03;;;24.50;84.50;;;;;;4966789;28;20704;-75
2023/07/16 09:12:34;;;;;;;1.73;1.27;;;24.60;85.00;;;;;;4960754;28;20183;-72
2023/07/16 09:14:59;;;;;;;2.00;1.50;;;24.70;84.70;;;;;;4968018;28;20468;-70
2023/07/16 09:17:25;;;;;;;1.70;1.60;;;24.80;84.10;;;;;;4969910;28;20296;-71
2023/07/16 09:19:51;;;;;;;1.63;1.53;;;24.90;84.60;;;;;;4969587;28;20210;-68
2023/07/16 09:22:20;;;;;;;1.20;1.10;;;25.00;82.50;;;;;;4968354;28;20213;-68
2023/07/16 09:24:47;;;;;;;1.20;1.10;;;25.10;81.30;;;;;;4969934;28;20597;-71
2023/07/16 09:27:13;;;;;;;1.20;1.00;;;25.00;81.00;;;;;;4970011;28;20461;-67
2023/07/16 09:29:39;;;;;;;1.10;1.00;;;25.00;79.10;;;;;;4968314;28;20422;-78
2023/07/16 09:32:05;;;;;;;1.23;1.10;;;25.00;78.40;;;;;;4968530;28;20470;-67
2023/07/16 09:34:32;;;;;;;1.33;1.23;;;25.00;75.70;;;;;;4968084;28;20497;-69
2023/07/16 09:36:58;;;;;;;1.10;1.00;;;25.00;77.40;;;;;;4969690;28;20725;-68
2023/07/16 09:39:26;;;;;;;0.93;0.83;;;25.00;76.70;;;;;;4968148;28;20429;-74
2023/07/16 09:41:51;;;;;;;2.30;1.17;;;25.00;77.40;;;;;;4969789;28;20529;-67
2023/07/16 09:44:18;;;;;;;10.23;2.00;;;25.00;78.10;;;;;;4968570;28;20517;-71
2023/07/16 09:46:45;;;;;;;2.50;1.57;;;25.00;77.60;;;;;;4969670;28;20261;-66
2023/07/16 09:49:11;;;;;;;1.23;1.13;;;25.10;78.40;;;;;;4969652;28;20433;-65
2023/07/16 09:51:37;;;;;;;4.40;1.60;;;25.10;78.90;;;;;;4968539;28;20449;-68
2023/07/16 09:54:04;;;;;;;2.13;1.70;;;25.20;77.30;;;;;;4968521;28;20186;-75
2023/07/16 09:56:43;;;;;;;3.60;1.20;;;25.20;76.90;;;;;;4969607;28;20453;-69
2023/07/16 09:59:17;;;;;;;2.53;1.60;;;25.30;77.00;;;;;;4968510;28;20516;-71
2023/07/16 10:01:43;;;;;;;1.37;1.27;;;25.30;76.30;;;;;;4968456;28;20957;-72
2023/07/16 10:04:16;;;;;;;1.30;1.20;;;25.40;76.10;;;;;;4967976;28;20914;-69
2023/07/16 10:06:59;;;;;;;1.93;1.53;;;25.40;76.20;;;;;;4962509;28;20472;-73
2023/07/16 10:09:38;;;;;;;7.70;1.53;;;25.40;75.30;;;;;;4968143;28;21012;-71
2023/07/16 10:12:20;;;;;;;1.30;1.20;;;25.50;75.00;;;;;;4968023;28;20477;-69
2023/07/16 10:14:50;;;;;;;3.90;1.67;;;25.50;74.60;;;;;;4969574;28;20418;-67
2023/07/16 10:17:21;;;;;;;1.53;1.07;;;25.60;75.70;;;;;;4968171;28;20436;-67
2023/07/16 10:20:07;;;;;;;3.27;1.80;;;25.70;74.50;;;;;;4971785;28;20505;-67
2023/07/16 10:22:34;;;;;;;10.47;2.07;;;25.80;74.60;;;;;;4972995;28;20426;-74
2023/07/16 10:25:00;;;;;;;1.40;1.30;;;25.80;74.70;;;;;;4972879;28;20426;-66
2023/07/16 10:27:31;;;;;;;2.20;1.23;;;25.80;75.50;;;;;;4971694;28;20433;-65
2023/07/16 10:29:56;;;;;;;1.67;1.57;;;25.90;75.90;;;;;;4972272;28;20425;-67
2023/07/16 10:32:26;;;;;;;1.20;1.10;;;25.90;74.40;;;;;;5012860;23;20580;-89
2023/07/16 10:34:51;;;;;;;1.33;1.23;;;26.00;74.40;;;;;;4993676;28;20194;-89
2023/07/16 10:37:17;;;;;;;1.07;1.03;;;26.00;73.80;;;;;;4996876;28;20537;-87
2023/07/16 10:39:48;;;;;;;1.87;1.30;;;26.10;73.70;;;;;;4995615;28;20266;-89
2023/07/16 10:42:15;;;;;;;2.13;1.00;;;26.10;73.50;;;;;;5012129;28;20207;-90
2023/07/16 10:44:40;;;;;;;7.47;3.00;;;26.10;74.60;;;;;;5007718;28;20427;-88
2023/07/16 10:47:06;;;;;;;1.33;1.10;;;26.30;75.60;;;;;;5013942;28;20459;-89
2023/07/16 10:49:31;;;;;;;1.40;1.40;;;26.40;74.30;;;;;;5014825;28;20185;-89
2023/07/16 10:52:01;;;;;;;2.40;1.00;;;26.50;73.30;;;;;;5008915;28;20193;-87
2023/07/16 10:54:27;;;;;;;1.73;1.63;;;26.50;72.20;;;;;;5004791;28;20173;-89
2023/07/16 10:56:52;;;;;;;1.70;1.20;;;26.50;72.40;;;;;;5009195;28;20420;-88
2023/07/16 10:59:18;;;;;;;1.20;1.07;;;26.50;73.90;;;;;;5003748;28;20553;-86
2023/07/16 11:01:44;;;;;;;1.10;1.00;;;26.60;72.70;;;;;;5013757;28;20200;-88
2023/07/16 11:04:10;;;;;;;2.80;1.17;;;26.60;73.00;;;;;;5013964;28;20201;-90
2023/07/16 11:06:35;;;;;;;1.33;1.23;;;26.60;73.80;;;;;;5010526;28;20469;-90
2023/07/16 11:09:09;;;;;;;3.43;1.63;;;26.70;73.80;;;;;;5009635;28;20193;-90
2023/07/16 11:11:34;;;;;;;4.00;2.60;;;26.80;73.20;;;;;;5006011;28;20205;-89
2023/07/16 11:14:03;;;;;;;1.10;1.00;;;26.90;73.40;;;;;;5014031;28;20416;-89
2023/07/16 11:16:36;;;;;;;1.50;1.40;;;27.00;73.10;;;;;;5005766;28;20194;-90
2023/07/16 11:19:06;;;;;;;1.70;1.40;;;27.00;72.20;;;;;;5005718;28;20432;-89
2023/07/16 11:21:33;;;;;;;1.20;1.10;;;27.00;72.60;;;;;;5012050;28;20450;-91
2023/07/16 11:24:09;;;;;;;2.80;1.33;;;27.00;73.60;;;;;;5002280;28;20676;-89
2023/07/16 11:26:35;;;;;;;0.90;0.80;;;27.00;72.60;;;;;;5004928;28;20495;-90
2023/07/16 11:29:01;;;;;;;3.43;1.93;;;27.10;73.50;;;;;;5013496;28;20423;-89
2023/07/16 11:31:26;;;;;;;1.67;0.93;;;27.20;73.00;;;;;;5012824;28;20233;-89
2023/07/16 11:33:52;;;;;;;1.40;1.30;;;27.40;72.20;;;;;;5010455;28;20714;-89
2023/07/16 11:36:17;;;;;;;1.23;1.20;;;27.40;71.80;;;;;;5007728;28;20627;-90
2023/07/16 11:38:43;;;;;;;7.70;1.83;;;27.40;72.90;;;;;;5013920;28;20181;-89
2023/07/16 11:41:09;;;;;;;3.90;1.20;;;27.40;71.80;;;;;;5017467;28;20205;-90
2023/07/16 11:43:36;;;;;;;7.90;1.20;;;27.40;72.60;;;;;;5023643;28;20239;-88
2023/07/16 11:46:03;;;;;;;1.40;1.27;;;27.60;73.30;;;;;;5025570;28;20468;-90
2023/07/16 11:48:28;;;;;;;1.00;1.00;;;27.60;70.70;;;;;;5021284;28;20432;-89
2023/07/16 11:50:54;;;;;;;2.27;2.10;;;27.70;71.10;;;;;;5014925;28;20455;-89
2023/07/16 11:53:19;;;;;;;1.73;1.50;;;27.60;71.10;;;;;;5022101;28;20208;-89
2023/07/16 11:55:45;;;;;;;1.00;1.00;;;27.50;71.10;;;;;;5017587;28;20185;-90
2023/07/16 11:58:10;;;;;;;1.40;1.33;;;27.60;71.50;;;;;;5028250;28;20347;-89
2023/07/16 12:00:36;;;;;;;1.33;1.30;;;27.60;71.80;;;;;;5008006;28;20619;-90
2023/07/16 12:03:01;;;;;;;1.27;1.17;;;27.70;71.00;;;;;;5001653;28;20553;-90
2023/07/16 12:05:28;;;;;;;4.10;1.77;;;27.70;71.80;;;;;;5010953;28;20613;-90
2023/07/16 12:07:53;;;;;;;1.33;1.10;;;27.70;71.90;;;;;;5005908;28;20187;-90
2023/07/16 12:10:20;;;;;;;5.63;1.83;;;27.90;71.30;;;;;;5003778;28;20507;-89
2023/07/16 12:12:45;;;;;;;1.70;1.50;;;28.00;70.20;;;;;;5012604;28;20192;-89
2023/07/16 12:15:12;;;;;;;2.60;1.23;;;28.10;70.80;;;;;;5004880;28;20416;-89
2023/07/16 12:17:37;;;;;;;1.70;1.60;;;28.20;69.50;;;;;;5001069;28;20227;-90
2023/07/16 12:20:04;;;;;;;1.43;1.33;;;28.00;69.60;;;;;;5007148;28;20421;-90
2023/07/16 12:22:29;;;;;;;1.53;1.27;;;28.00;70.10;;;;;;5012334;28;20700;-88
2023/07/16 12:24:55;;;;;;;1.40;1.30;;;28.00;70.80;;;;;;5012189;28;20412;-90
2023/07/16 12:27:21;;;;;;;1.67;1.10;;;27.90;70.00;;;;;;5003798;28;20215;-89
2023/07/16 12:29:46;;;;;;;1.90;1.83;;;27.90;69.50;;;;;;5012190;28;20184;-88
2023/07/16 12:32:13;;;;;;;1.77;1.33;;;27.70;69.50;;;;;;5004104;28;21059;-89
2023/07/16 12:34:39;;;;;;;6.43;1.97;;;27.60;69.80;;;;;;5004000;28;20188;-90
2023/07/16 12:37:04;;;;;;;1.60;1.20;;;27.60;69.90;;;;;;5008435;28;20436;-89
2023/07/16 12:39:30;;;;;;;1.37;1.33;;;27.70;69.60;;;;;;5009980;28;20196;-90
2023/07/16 12:41:55;;;;;;;1.77;1.50;;;27.80;68.40;;;;;;4999565;28;20703;-89
2023/07/16 12:44:21;;;;;;;6.33;1.53;;;27.70;68.40;;;;;;5009168;28;20192;-89
2023/07/16 12:46:47;;;;;;;3.27;1.93;;;27.70;69.00;;;;;;5007252;28;20240;-87
2023/07/16 12:49:12;;;;;;;1.67;1.60;;;27.80;69.30;;;;;;5008009;28;20651;-90
2023/07/16 12:51:38;;;;;;;3.90;1.43;;;28.00;68.10;;;;;;5011728;28;20209;-89
2023/07/16 12:54:03;;;;;;;1.20;1.10;;;28.20;67.30;;;;;;5004278;28;20259;-90
2023/07/16 12:56:30;;;;;;;1.37;1.20;;;28.30;66.90;;;;;;5004042;28;20189;-89
2023/07/16 12:58:56;;;;;;;1.60;1.27;;;28.40;66.30;;;;;;5011951;28;20189;-90
2023/07/16 13:01:21;;;;;;;1.57;1.40;;;28.40;67.60;;;;;;5012908;28;20894;-89
2023/07/16 13:03:47;;;;;;;1.13;1.10;;;28.40;66.00;;;;;;5004136;28;20211;-90
2023/07/16 13:06:12;;;;;;;1.87;1.70;;;28.50;66.80;;;;;;5011501;28;20728;-88
2023/07/16 13:08:38;;;;;;;4.23;2.03;;;28.60;66.10;;;;;;5008085;28;20272;-89
2023/07/16 13:11:03;;;;;;;1.23;1.13;;;28.70;65.60;;;;;;4999171;28;20208;-90
2023/07/16 13:13:29;;;;;;;1.40;1.30;;;28.70;65.80;;;;;;5008642;28;20184;-87
2023/07/16 13:15:55;;;;;;;2.13;1.77;;;28.80;66.20;;;;;;5003483;28;20216;-90
2023/07/16 13:18:20;;;;;;;1.53;1.43;;;28.80;66.30;;;;;;5012455;28;20276;-89
2023/07/16 13:20:46;;;;;;;1.10;1.00;;;28.80;65.80;;;;;;5008412;28;20281;-88
2023/07/16 13:23:12;;;;;;;3.10;1.43;;;28.90;65.40;;;;;;5007688;28;20212;-87
2023/07/16 13:25:38;;;;;;;1.40;1.40;;;28.90;65.60;;;;;;5011378;28;20255;-90
2023/07/16 13:28:05;;;;;;;1.60;1.50;;;29.00;65.80;;;;;;5011915;28;20181;-89
2023/07/16 13:30:31;;;;;;;2.23;1.63;;;28.90;65.00;;;;;;5011233;28;20212;-89
2023/07/16 13:32:56;;;;;;;1.30;1.20;;;28.90;65.10;;;;;;5012664;28;20420;-89
2023/07/16 13:35:23;;;;;;;2.30;1.43;;;28.90;66.00;;;;;;5011387;28;20211;-87
2023/07/16 13:37:49;;;;;;;1.20;1.10;;;29.00;66.10;;;;;;5004031;28;20192;-89
2023/07/16 13:40:15;;;;;;;1.90;1.80;;;29.10;65.90;;;;;;5012718;28;20498;-87
2023/07/16 13:42:40;;;;;;;1.47;1.37;;;29.20;64.60;;;;;;5004323;28;20610;-87
2023/07/16 13:45:06;;;;;;;1.87;1.57;;;29.40;65.80;;;;;;5011666;28;20191;-89
2023/07/16 13:47:32;;;;;;;1.80;1.40;;;29.50;65.40;;;;;;5011694;28;20651;-86
2023/07/16 13:49:57;;;;;;;1.57;1.13;;;29.50;64.40;;;;;;5010765;28;20420;-87
2023/07/16 13:52:23;;;;;;;2.73;1.70;;;29.60;64.20;;;;;;5002805;28;20735;-89
2023/07/16 13:54:48;;;;;;;2.60;1.33;;;29.60;63.40;;;;;;5006074;28;20192;-89
2023/07/16 13:57:14;;;;;;;1.63;1.47;;;29.70;63.20;;;;;;5014907;28;20629;-89
2023/07/16 13:59:40;;;;;;;1.40;1.30;;;29.80;65.00;;;;;;5014614;28;20196;-87
2023/07/16 14:02:05;;;;;;;1.77;1.67;;;29.90;64.80;;;;;;5014872;28;20209;-89
2023/07/16 14:04:31;;;;;;;3.27;2.10;;;30.00;63.20;;;;;;5007215;28;20693;-88
2023/07/16 14:06:56;;;;;;;1.20;1.10;;;30.00;63.60;;;;;;5014658;28;20208;-88
2023/07/16 14:09:22;;;;;;;2.03;1.53;;;30.00;64.10;;;;;;5006175;28;20180;-87
2023/07/16 14:11:48;;;;;;;1.60;1.50;;;30.10;63.50;;;;;;5002545;28;20197;-89
2023/07/16 14:14:18;;;;;;;2.83;0.90;;;30.10;63.60;;;;;;5009894;28;20220;-87
2023/07/16 14:16:43;;;;;;;2.00;1.90;;;30.10;64.70;;;;;;5016118;28;20177;-88
2023/07/16 14:19:09;;;;;;;1.30;1.20;;;30.30;66.30;;;;;;5014602;28;20988;-90
2023/07/16 14:21:35;;;;;;;2.00;1.27;;;30.40;64.30;;;;;;5003950;28;20300;-87
2023/07/16 14:24:01;;;;;;;1.20;1.20;;;30.40;63.80;;;;;;5008468;28;20768;-88
2023/07/16 14:26:26;;;;;;;17.13;2.37;;;30.40;63.80;;;;;;5004661;28;20220;-87
2023/07/16 14:28:52;;;;;;;1.47;1.37;;;30.40;62.90;;;;;;5007292;28;20188;-87
2023/07/16 14:31:18;;;;;;;1.57;1.53;;;30.40;63.70;;;;;;5012136;28;20354;-88
2023/07/16 14:33:43;;;;;;;1.90;1.67;;;30.40;63.80;;;;;;5005117;28;20184;-87
2023/07/16 14:36:09;;;;;;;3.70;2.00;;;30.40;62.80;;;;;;5014656;28;20619;-87
2023/07/16 14:38:34;;;;;;;1.23;1.13;;;30.50;63.70;;;;;;5014385;28;20200;-88
2023/07/16 14:41:00;;;;;;;1.73;1.63;;;30.70;64.30;;;;;;5015012;28;20251;-87
2023/07/16 14:43:25;;;;;;;3.80;3.07;;;30.80;63.20;;;;;;5013964;28;20609;-87
2023/07/16 14:45:51;;;;;;;1.40;1.40;;;30.80;63.30;;;;;;5014396;28;20209;-87
2023/07/16 14:48:16;;;;;;;1.73;1.63;;;30.80;62.70;;;;;;5014204;28;20208;-87
2023/07/16 14:50:42;;;;;;;3.93;1.43;;;30.80;62.20;;;;;;5010816;28;20214;-86
2023/07/16 14:53:07;;;;;;;2.40;1.80;;;30.80;62.20;;;;;;5008469;28;20188;-87
2023/07/16 14:55:33;;;;;;;1.50;1.40;;;30.80;63.20;;;;;;5013517;28;20189;-87
2023/07/16 14:57:59;;;;;;;1.73;1.63;;;30.80;63.10;;;;;;5005844;28;20181;-87
2023/07/16 15:00:25;;;;;;;2.60;1.33;;;30.80;61.80;;;;;;5006261;28;20228;-87
2023/07/16 15:02:53;;;;;;;1.67;1.37;;;30.80;62.40;;;;;;5006096;28;20189;-87
2023/07/16 15:05:19;;;;;;;1.97;1.73;;;30.80;61.80;;;;;;5013119;28;20450;-87
2023/07/16 15:07:44;;;;;;;1.87;1.67;;;30.70;62.20;;;;;;5013211;28;20938;-87
2023/07/16 15:10:10;;;;;;;2.37;2.17;;;30.70;62.20;;;;;;5006705;28;20277;-87
2023/07/16 15:12:36;;;;;;;1.53;1.47;;;30.80;62.80;;;;;;5011647;28;20193;-87
2023/07/16 15:15:01;;;;;;;4.87;2.07;;;30.80;61.80;;;;;;5013391;28;20420;-88
2023/07/16 15:17:27;;;;;;;1.80;1.70;;;30.90;61.60;;;;;;5013832;28;20203;-86
2023/07/16 15:19:52;;;;;;;2.80;1.57;;;30.90;61.80;;;;;;5012757;28;20650;-87
2023/07/16 15:22:20;;;;;;;4.83;2.20;;;30.90;60.40;;;;;;5013163;28;20744;-87
2023/07/16 15:24:46;;;;;;;1.33;1.30;;;30.90;61.20;;;;;;5005002;28;20234;-87
2023/07/16 15:27:11;;;;;;;2.40;2.20;;;30.80;60.30;;;;;;5013059;28;20479;-87
2023/07/16 15:29:37;;;;;;;1.37;1.30;;;30.80;61.40;;;;;;5012803;28;20436;-87
2023/07/16 15:32:03;;;;;;;1.67;1.57;;;30.60;60.10;;;;;;5005005;28;20233;-89
2023/07/16 15:34:29;;;;;;;1.90;1.80;;;30.50;59.90;;;;;;5013366;28;20323;-88
2023/07/16 15:36:54;;;;;;;5.90;2.20;;;30.50;61.50;;;;;;5005209;28;20519;-89
2023/07/16 15:39:20;;;;;;;1.93;1.83;;;30.60;61.10;;;;;;5013463;28;20181;-87
2023/07/16 15:41:45;;;;;;;2.10;1.60;;;30.60;61.10;;;;;;5012324;28;20739;-87
2023/07/16 15:44:11;;;;;;;1.90;1.40;;;30.50;61.80;;;;;;5013815;28;20558;-87
2023/07/16 15:46:36;;;;;;;3.53;1.50;;;30.60;61.40;;;;;;5003575;28;20703;-87
2023/07/16 15:49:03;;;;;;;1.57;1.50;;;30.60;62.30;;;;;;5005297;28;20659;-87
2023/07/16 15:51:28;;;;;;;1.43;1.23;;;30.70;61.80;;;;;;5003564;28;20394;-88
2023/07/16 15:53:54;;;;;;;3.80;2.10;;;30.80;62.90;;;;;;5005304;28;20420;-87
2023/07/16 15:56:22;;;;;;;1.93;1.10;;;30.90;62.40;;;;;;5012764;28;20189;-86
2023/07/16 15:58:48;;;;;;;2.63;1.83;;;31.00;61.20;;;;;;5012364;28;20217;-87
2023/07/16 16:01:13;;;;;;;3.87;1.80;;;31.20;61.10;;;;;;5012209;28;20479;-87
2023/07/16 16:03:39;;;;;;;3.40;1.67;;;31.20;60.10;;;;;;5002409;28;20708;-87
2023/07/16 16:06:05;;;;;;;2.70;1.73;;;31.10;58.90;;;;;;5005969;28;20229;-87
2023/07/16 16:08:30;;;;;;;1.60;1.53;;;31.00;59.80;;;;;;5012573;28;20236;-88
2023/07/16 16:10:56;;;;;;;3.80;1.63;;;31.00;60.60;;;;;;5011991;28;21075;-87
2023/07/16 16:13:24;;;;;;;1.60;1.50;;;31.00;59.30;;;;;;5004519;28;20177;-87
2023/07/16 16:15:50;;;;;;;6.87;1.63;;;31.10;59.30;;;;;;5005364;28;20260;-87
2023/07/16 16:18:15;;;;;;;2.80;1.73;;;31.10;59.60;;;;;;5005677;28;20523;-88
2023/07/16 16:20:42;;;;;;;3.73;1.83;;;31.00;59.40;;;;;;5010324;28;20458;-87
2023/07/16 16:23:08;;;;;;;1.60;1.50;;;31.00;59.40;;;;;;5006560;28;20825;-88
2023/07/16 16:25:34;;;;;;;4.13;1.80;;;30.90;60.70;;;;;;5001558;28;20465;-87
2023/07/16 16:28:04;;;;;;;3.43;2.03;;;31.00;59.50;;;;;;5004255;28;20213;-87
2023/07/16 16:33:05;;;;;;;1.10;1.10;;;30.70;59.90;;;;;;4989266;23;20832;-66
2023/07/16 16:35:37;;;;;;;2.83;1.87;;;30.70;59.90;;;;;;4963260;28;20692;-70
2023/07/16 16:38:03;;;;;;;2.90;2.00;;;30.50;59.40;;;;;;4970700;28;20465;-65
2023/07/16 16:40:29;;;;;;;1.43;1.20;;;30.40;59.80;;;;;;4970121;28;21002;-66
2023/07/16 16:42:55;;;;;;;1.23;1.20;;;30.30;60.70;;;;;;4963176;28;20818;-65
2023/07/16 16:45:20;;;;;;;2.57;1.57;;;30.30;60.30;;;;;;4968736;28;20440;-66
2023/07/16 16:47:46;;;;;;;3.07;2.03;;;30.40;60.00;;;;;;4968866;28;20190;-65